createdAt,value
2022-10-10T00:00:05.285Z,92.35
2022-10-10T00:02:32.003Z,92.36
2022-10-10T00:04:58.749Z,92.44
2022-10-10T00:07:25.346Z,92.62
2022-10-10T00:09:52.012Z,92.77
2022-10-10T00:12:18.642Z,92.81
2022-10-10T00:14:45.323Z,92.78
2022-10-10T00:17:11.998Z,92.74
2022-10-10T00:19:38.649Z,92.64
2022-10-10T00:22:05.326Z,92.62
2022-10-10T00:24:31.934Z,92.62
2022-10-10T00:26:58.579Z,92.68
2022-10-10T00:29:25.444Z,92.75
2022-10-10T00:31:52.084Z,92.63
2022-10-10T00:34:18.735Z,92.63
2022-10-10T00:36:45.378Z,92.59
2022-10-10T00:39:11.992Z,92.48
2022-10-10T00:41:38.652Z,92.63
2022-10-10T00:44:13.402Z,92.61
2022-10-10T00:46:40.207Z,92.46
2022-10-10T00:49:17.815Z,92.36
2022-10-10T00:51:46.411Z,92.34
2022-10-10T00:54:13.856Z,92.25
2022-10-10T00:56:49.088Z,92.26
2022-10-10T00:59:15.793Z,92.23
2022-10-10T01:01:42.610Z,92.23
2022-10-10T01:04:28.148Z,92.15
2022-10-10T01:06:54.848Z,91.99
2022-10-10T01:09:21.506Z,92.11
2022-10-10T01:12:04.231Z,92.00
2022-10-10T01:14:52.607Z,91.99
2022-10-10T01:17:20.851Z,91.84
2022-10-10T01:19:59.473Z,91.67
2022-10-10T01:22:48.288Z,91.64
2022-10-10T01:25:18.478Z,91.74
2022-10-10T01:27:52.198Z,91.68
2022-10-10T01:30:23.109Z,91.74
2022-10-10T01:32:54.412Z,91.71
2022-10-10T01:35:44.143Z,91.67
2022-10-10T01:38:40.272Z,91.52
2022-10-10T01:41:10.785Z,91.68
2022-10-10T01:43:37.547Z,91.57
2022-10-10T01:46:10.665Z,91.77
2022-10-10T01:48:37.384Z,91.71
2022-10-10T01:51:15.816Z,91.87
2022-10-10T01:53:50.250Z,91.93
2022-10-10T01:56:38.006Z,91.89
2022-10-10T01:59:20.546Z,92.22
2022-10-10T02:01:55.472Z,92.21
2022-10-10T02:04:38.843Z,92.11
2022-10-10T02:07:09.283Z,92.27
2022-10-10T02:09:38.244Z,92.51
2022-10-10T02:12:05.261Z,92.68
2022-10-10T02:14:34.269Z,92.67
2022-10-10T02:17:00.990Z,92.88
2022-10-10T02:19:27.921Z,92.95
2022-10-10T02:21:54.756Z,92.87
2022-10-10T02:24:21.727Z,93.14
2022-10-10T02:26:59.416Z,93.21
2022-10-10T02:29:28.505Z,93.15
2022-10-10T02:32:23.270Z,93.39
2022-10-10T02:34:51.964Z,93.62
2022-10-10T02:37:18.594Z,93.72
2022-10-10T02:39:48.090Z,93.99
2022-10-10T02:42:15.573Z,93.85
2022-10-10T02:44:42.238Z,93.93
2022-10-10T02:47:09.045Z,94.10
2022-10-10T02:49:35.842Z,94.06
2022-10-10T02:52:02.660Z,94.15
2022-10-10T02:54:29.256Z,94.27
2022-10-10T02:56:56.101Z,94.40
2022-10-10T02:59:22.781Z,94.29
2022-10-10T03:03:09.681Z,94.22
2022-10-10T03:05:36.537Z,94.50
2022-10-10T03:08:04.352Z,94.73
2022-10-10T03:10:33.691Z,94.41
2022-10-10T03:13:00.298Z,94.47
2022-10-10T03:15:26.962Z,94.45
2022-10-10T03:17:53.700Z,94.70
2022-10-10T03:20:20.444Z,94.88
2022-10-10T03:22:47.148Z,94.46
2022-10-10T03:25:13.828Z,94.65
2022-10-10T03:27:40.559Z,94.54
2022-10-10T03:30:07.915Z,94.61
2022-10-10T03:32:34.573Z,94.81
2022-10-10T03:35:01.258Z,94.83
2022-10-10T03:37:28.005Z,94.81
2022-10-10T03:39:54.576Z,94.86
2022-10-10T03:42:21.293Z,94.96
2022-10-10T03:44:47.934Z,94.93
2022-10-10T03:47:14.658Z,94.98
2022-10-10T03:49:41.269Z,94.98
2022-10-10T03:52:07.922Z,94.80
2022-10-10T03:54:34.554Z,94.66
2022-10-10T03:57:01.295Z,94.82
2022-10-10T03:59:27.943Z,94.91
2022-10-10T04:01:54.617Z,94.96
2022-10-10T04:04:21.339Z,95.19
2022-10-10T04:06:47.995Z,95.07
2022-10-10T04:09:14.650Z,95.22
2022-10-10T04:11:41.413Z,95.10
2022-10-10T04:14:08.101Z,95.11
2022-10-10T04:16:34.809Z,95.09
2022-10-10T04:19:01.421Z,95.14
2022-10-10T04:21:28.159Z,95.25
2022-10-10T04:23:54.854Z,94.90
2022-10-10T04:26:21.477Z,95.07
2022-10-10T04:28:48.329Z,95.28
2022-10-10T04:31:14.873Z,95.38
2022-10-10T04:33:41.621Z,95.49
2022-10-10T04:36:08.394Z,95.29
2022-10-10T04:38:35.089Z,95.36
2022-10-10T04:41:01.824Z,95.51
2022-10-10T04:43:28.486Z,95.41
2022-10-10T04:45:57.651Z,95.64
2022-10-10T04:48:24.669Z,95.53
2022-10-10T04:50:55.431Z,95.50
2022-10-10T04:53:22.125Z,95.70
2022-10-10T04:55:48.976Z,95.78
2022-10-10T04:58:15.588Z,95.89
2022-10-10T05:00:42.257Z,95.79
2022-10-10T05:03:10.237Z,96.06
2022-10-10T05:05:37.190Z,95.99
2022-10-10T05:08:03.894Z,96.00
2022-10-10T05:10:30.619Z,95.97
2022-10-10T05:12:57.342Z,95.98
2022-10-10T05:15:24.815Z,96.08
2022-10-10T05:17:51.522Z,96.04
2022-10-10T05:20:18.228Z,96.27
2022-10-10T05:22:44.835Z,96.11
2022-10-10T05:25:11.964Z,95.85
2022-10-10T05:27:38.608Z,95.84
2022-10-10T05:30:05.717Z,95.87
2022-10-10T05:32:32.365Z,95.78
2022-10-10T05:34:59.027Z,95.82
2022-10-10T05:37:25.703Z,95.87
2022-10-10T05:39:54.677Z,95.94
2022-10-10T05:42:21.616Z,95.94
2022-10-10T05:44:48.332Z,95.82
2022-10-10T05:47:15.246Z,95.49
2022-10-10T05:49:41.882Z,95.39
2022-10-10T05:52:08.826Z,95.22
2022-10-10T05:54:36.924Z,95.18
2022-10-10T05:57:03.580Z,94.91
2022-10-10T05:59:30.245Z,94.97
2022-10-10T06:01:57.402Z,95.01
2022-10-10T06:04:24.180Z,94.96
2022-10-10T06:06:50.823Z,94.62
2022-10-10T06:09:17.505Z,94.39
2022-10-10T06:11:44.155Z,93.92
2022-10-10T06:14:10.907Z,93.90
2022-10-10T06:16:39.382Z,93.73
2022-10-10T06:19:06.178Z,93.66
2022-10-10T06:21:32.762Z,93.76
2022-10-10T06:23:59.496Z,93.61
2022-10-10T06:26:26.172Z,93.50
2022-10-10T06:28:52.873Z,93.21
2022-10-10T06:31:19.793Z,93.02
2022-10-10T06:33:46.615Z,92.66
2022-10-10T06:36:13.417Z,92.18
2022-10-10T06:38:40.929Z,91.64
2022-10-10T06:41:07.818Z,91.64
2022-10-10T06:43:34.431Z,91.74
2022-10-10T06:46:01.175Z,91.40
2022-10-10T06:48:29.958Z,91.23
2022-10-10T06:51:05.147Z,91.23
2022-10-10T06:53:32.262Z,91.04
2022-10-10T06:55:59.108Z,90.88
2022-10-10T06:58:26.734Z,90.59
2022-10-10T07:00:54.357Z,90.31
2022-10-10T07:03:21.591Z,90.33
2022-10-10T07:05:56.119Z,90.46
2022-10-10T07:08:23.407Z,90.45
2022-10-10T07:10:50.089Z,89.58
2022-10-10T07:13:16.955Z,89.06
2022-10-10T07:15:43.697Z,89.05
2022-10-10T07:18:10.621Z,88.94
2022-10-10T07:20:37.635Z,88.91
2022-10-10T07:23:04.507Z,88.36
2022-10-10T07:25:31.296Z,88.09
2022-10-10T07:27:58.183Z,88.06
2022-10-10T07:30:25.201Z,88.09
2022-10-10T07:32:56.517Z,88.05
2022-10-10T07:35:23.402Z,87.85
2022-10-10T07:37:53.774Z,87.30
2022-10-10T07:40:20.439Z,87.29
2022-10-10T07:42:47.148Z,87.47
2022-10-10T07:45:13.831Z,87.15
2022-10-10T07:47:40.635Z,86.99
2022-10-10T07:50:07.988Z,86.41
2022-10-10T07:52:35.539Z,85.82
2022-10-10T07:55:02.604Z,85.03
2022-10-10T07:57:29.731Z,84.42
2022-10-10T07:59:56.437Z,84.22
2022-10-10T08:02:23.150Z,83.81
2022-10-10T08:04:50.141Z,83.06
2022-10-10T08:07:16.859Z,81.99
2022-10-10T08:09:43.474Z,80.89
2022-10-10T08:12:10.160Z,80.37
2022-10-10T08:14:36.883Z,79.77
2022-10-10T08:17:03.548Z,79.58
2022-10-10T08:19:30.354Z,77.94
2022-10-10T08:21:57.178Z,77.29
2022-10-10T08:24:23.776Z,75.91
2022-10-10T08:26:51.204Z,76.14
2022-10-10T08:29:18.392Z,74.76
2022-10-10T08:31:46.552Z,73.72
2022-10-10T08:34:13.366Z,73.54
2022-10-10T08:36:40.091Z,73.84
2022-10-10T08:39:07.395Z,73.15
2022-10-10T08:41:42.918Z,72.49
2022-10-10T08:44:31.968Z,71.90
2022-10-10T08:47:06.979Z,71.13
2022-10-10T08:49:36.034Z,71.37
2022-10-10T08:52:31.655Z,71.85
2022-10-10T08:54:59.184Z,71.28
2022-10-10T08:57:31.050Z,69.93
2022-10-10T09:00:05.191Z,69.08
2022-10-10T09:02:55.288Z,69.23
2022-10-10T09:05:40.318Z,69.16
2022-10-10T09:08:49.311Z,68.94
2022-10-10T09:11:15.918Z,68.42
2022-10-10T09:13:48.899Z,68.16
2022-10-10T09:16:33.900Z,67.94
2022-10-10T09:19:18.359Z,68.24
2022-10-10T09:21:45.340Z,67.94
2022-10-10T09:24:20.279Z,67.77
2022-10-10T09:26:49.900Z,67.17
2022-10-10T09:29:22.433Z,65.59
2022-10-10T09:31:51.660Z,63.83
2022-10-10T09:34:20.832Z,64.39
2022-10-10T09:36:47.620Z,64.00
2022-10-10T09:39:14.196Z,61.79
2022-10-10T09:41:46.962Z,61.04
2022-10-10T09:44:14.343Z,60.79
2022-10-10T09:46:41.088Z,59.89
2022-10-10T09:49:07.671Z,58.75
2022-10-10T09:51:34.383Z,58.40
2022-10-10T09:54:01.077Z,59.50
2022-10-10T09:56:28.522Z,59.12
2022-10-10T09:58:55.485Z,58.74
2022-10-10T10:01:27.377Z,58.16
2022-10-10T10:04:23.495Z,57.68
2022-10-10T10:06:53.548Z,57.71
2022-10-10T10:09:21.193Z,57.56
2022-10-10T10:11:54.747Z,57.89
2022-10-10T10:14:51.126Z,57.89
2022-10-10T10:17:19.052Z,56.29
2022-10-10T10:19:46.298Z,55.58
2022-10-10T10:22:39.441Z,55.61
2022-10-10T10:25:34.984Z,55.89
2022-10-10T10:28:10.895Z,56.25
2022-10-10T10:30:40.765Z,55.98
2022-10-10T10:33:45.575Z,55.76
2022-10-10T10:36:39.829Z,55.56
2022-10-10T10:39:28.165Z,54.91
2022-10-10T10:41:59.175Z,54.55
2022-10-10T10:44:28.729Z,54.89
2022-10-10T10:47:20.427Z,54.20
2022-10-10T10:50:10.478Z,54.11
2022-10-10T10:52:43.299Z,53.34
2022-10-10T10:55:26.102Z,53.73
2022-10-10T10:58:58.041Z,52.69
2022-10-10T11:01:28.714Z,52.02
2022-10-10T11:05:18.450Z,50.49
2022-10-10T11:07:20.613Z,49.95
2022-10-10T11:09:56.608Z,50.21
2022-10-10T11:12:29.057Z,49.67
2022-10-10T11:15:01.885Z,49.18
2022-10-10T11:17:39.118Z,49.22
2022-10-10T11:20:34.869Z,49.86
2022-10-10T11:23:11.581Z,49.56
2022-10-10T11:25:47.769Z,48.18
2022-10-10T11:28:21.138Z,47.06
2022-10-10T11:30:51.728Z,47.71
2022-10-10T11:33:23.023Z,48.27
2022-10-10T11:36:01.839Z,48.04
2022-10-10T11:38:35.089Z,48.39
2022-10-10T11:41:03.427Z,49.19
2022-10-10T11:43:32.017Z,47.03
2022-10-10T11:46:43.749Z,46.93
2022-10-10T11:49:13.322Z,48.55
2022-10-10T11:52:14.953Z,48.44
2022-10-10T11:54:50.451Z,48.61
2022-10-10T11:57:23.119Z,49.34
2022-10-10T11:59:52.888Z,49.46
2022-10-10T12:02:31.314Z,49.82
2022-10-10T12:04:58.094Z,49.86
2022-10-10T12:07:57.664Z,50.33
2022-10-10T12:10:27.148Z,49.75
2022-10-10T12:12:54.983Z,49.32
2022-10-10T12:15:40.842Z,49.55
2022-10-10T12:18:27.769Z,50.40
2022-10-10T12:21:05.013Z,50.12
2022-10-10T12:23:31.786Z,50.14
2022-10-10T12:25:58.804Z,50.61
2022-10-10T12:28:28.502Z,51.08
2022-10-10T12:30:58.263Z,51.15
2022-10-10T12:33:30.996Z,51.25
2022-10-10T12:35:57.710Z,50.74
2022-10-10T12:38:25.129Z,49.89
2022-10-10T12:40:57.697Z,48.50
2022-10-10T12:44:03.308Z,48.53
2022-10-10T12:46:33.338Z,48.76
2022-10-10T12:49:14.085Z,49.05
2022-10-10T12:51:40.911Z,49.36
2022-10-10T12:54:08.370Z,49.57
2022-10-10T12:56:42.635Z,49.65
2022-10-10T12:59:20.724Z,49.69
2022-10-10T13:01:52.032Z,50.04
2022-10-10T13:04:18.847Z,49.82
2022-10-10T13:06:45.690Z,49.77
2022-10-10T13:09:22.029Z,49.80
2022-10-10T13:11:58.742Z,50.03
2022-10-10T13:14:26.304Z,50.15
2022-10-10T13:16:53.121Z,49.79
2022-10-10T13:19:22.056Z,50.10
2022-10-10T13:21:49.524Z,49.87
2022-10-10T13:24:17.750Z,49.80
2022-10-10T13:26:49.229Z,49.86
2022-10-10T13:29:26.846Z,49.67
2022-10-10T13:31:54.664Z,49.86
2022-10-10T13:34:27.232Z,49.90
2022-10-10T13:36:56.128Z,50.30
2022-10-10T13:39:23.438Z,49.90
2022-10-10T13:41:50.260Z,50.16
2022-10-10T13:44:22.028Z,50.42
2022-10-10T13:46:48.754Z,50.07
2022-10-10T13:49:23.886Z,49.91
2022-10-10T13:52:02.353Z,50.37
2022-10-10T13:54:45.437Z,50.25
2022-10-10T13:57:14.649Z,50.00
2022-10-10T13:59:41.906Z,50.33
2022-10-10T14:02:11.756Z,50.23
2022-10-10T14:04:39.670Z,50.35
2022-10-10T14:07:10.910Z,50.74
2022-10-10T14:09:47.958Z,51.02
2022-10-10T14:12:25.002Z,51.55
2022-10-10T14:14:52.849Z,51.78
2022-10-10T14:17:19.643Z,51.90
2022-10-10T14:19:46.996Z,51.93
2022-10-10T14:22:13.853Z,52.21
2022-10-10T14:24:40.566Z,52.46
2022-10-10T14:27:16.326Z,52.48
2022-10-10T14:29:43.106Z,52.42
2022-10-10T14:32:10.944Z,52.73
2022-10-10T14:34:37.918Z,53.09
2022-10-10T14:37:04.906Z,52.97
2022-10-10T14:39:31.598Z,53.06
2022-10-10T14:41:59.082Z,53.10
2022-10-10T14:44:25.782Z,53.14
2022-10-10T14:46:52.346Z,53.03
2022-10-10T14:49:19.835Z,53.45
2022-10-10T14:51:47.338Z,53.50
2022-10-10T14:54:14.404Z,53.69
2022-10-10T14:57:09.081Z,53.99
2022-10-10T14:59:47.331Z,54.03
2022-10-10T15:02:17.977Z,54.35
2022-10-10T15:04:44.616Z,54.35
2022-10-10T15:07:13.844Z,54.80
2022-10-10T15:09:56.595Z,54.97
2022-10-10T15:12:29.494Z,55.22
2022-10-10T15:14:56.304Z,55.44
2022-10-10T15:20:31.915Z,55.81
2022-10-10T15:23:05.408Z,56.00
2022-10-10T15:25:34.169Z,56.27
2022-10-10T15:28:02.001Z,56.33
2022-10-10T15:30:28.733Z,56.40
2022-10-10T15:32:56.892Z,56.60
2022-10-10T15:35:23.678Z,56.90
2022-10-10T15:37:50.346Z,57.25
2022-10-10T15:40:19.181Z,57.30
2022-10-10T15:42:46.555Z,57.39
2022-10-10T15:45:14.903Z,57.67
2022-10-10T15:47:49.766Z,57.77
2022-10-10T15:50:16.311Z,58.16
2022-10-10T15:52:42.888Z,58.17
2022-10-10T15:55:09.468Z,58.37
2022-10-10T15:57:35.907Z,58.69
2022-10-10T16:00:03.389Z,58.93
2022-10-10T16:02:40.325Z,59.44
2022-10-10T16:05:09.324Z,60.24
2022-10-10T16:07:46.773Z,60.79
2022-10-10T16:10:14.969Z,61.24
2022-10-10T16:12:44.204Z,61.57
2022-10-10T16:15:11.080Z,61.69
2022-10-10T16:17:38.014Z,61.94
2022-10-10T16:20:05.926Z,62.07
2022-10-10T16:22:33.572Z,62.22
2022-10-10T16:27:46.591Z,62.03
2022-10-10T16:30:13.252Z,62.11
2022-10-10T16:32:42.592Z,61.90
2022-10-10T16:35:10.303Z,61.87
2022-10-10T16:37:37.473Z,61.47
2022-10-10T16:40:05.118Z,61.29
2022-10-10T16:42:31.773Z,61.06
2022-10-10T16:44:58.898Z,60.89
2022-10-10T16:47:25.608Z,60.47
2022-10-10T16:49:52.387Z,60.23
2022-10-10T16:52:18.868Z,60.05
2022-10-10T16:54:48.717Z,59.82
2022-10-10T16:57:17.875Z,59.70
2022-10-10T16:59:44.535Z,59.72
2022-10-10T17:02:11.132Z,59.60
2022-10-10T17:04:37.653Z,59.65
2022-10-10T17:07:04.964Z,59.66
2022-10-10T17:09:31.530Z,59.73
2022-10-10T17:11:59.352Z,59.88
2022-10-10T17:14:25.945Z,59.91
2022-10-10T17:19:40.669Z,59.95
2022-10-10T17:22:07.318Z,60.33
2022-10-10T17:24:33.810Z,60.53
2022-10-10T17:27:00.251Z,61.10
2022-10-10T17:29:26.743Z,61.47
2022-10-10T17:31:53.189Z,61.99
2022-10-10T17:34:19.642Z,62.26
2022-10-10T17:36:46.388Z,61.73
2022-10-10T17:39:13.013Z,61.78
2022-10-10T17:41:39.891Z,61.90
2022-10-10T17:44:09.760Z,62.63
2022-10-10T17:46:37.187Z,63.08
2022-10-10T17:49:04.677Z,63.58
2022-10-10T17:51:31.504Z,63.91
2022-10-10T17:53:58.934Z,64.24
2022-10-10T17:56:25.680Z,64.73
2022-10-10T17:58:52.118Z,65.17
2022-10-10T18:01:18.985Z,65.67
2022-10-10T18:03:45.608Z,65.97
2022-10-10T18:06:14.780Z,66.43
2022-10-10T18:08:49.360Z,66.79
2022-10-10T18:11:21.388Z,67.03
2022-10-10T18:13:47.907Z,67.33
2022-10-10T18:16:16.501Z,67.66
2022-10-10T18:18:49.609Z,67.97
2022-10-10T18:21:18.160Z,68.16
2022-10-10T18:23:44.698Z,68.28
2022-10-10T18:26:24.964Z,68.47
2022-10-10T18:28:54.954Z,68.59
2022-10-10T18:31:26.903Z,68.52
2022-10-10T18:33:53.670Z,68.61
2022-10-10T18:36:25.142Z,68.80
2022-10-10T18:38:51.873Z,68.48
2022-10-10T18:41:21.845Z,68.43
2022-10-10T18:43:48.946Z,68.43
2022-10-10T18:46:17.731Z,68.46
2022-10-10T18:48:44.475Z,68.60
2022-10-10T18:51:11.746Z,68.69
2022-10-10T18:53:39.232Z,69.00
2022-10-10T18:56:06.117Z,69.15
2022-10-10T18:58:33.997Z,69.29
2022-10-10T19:01:02.267Z,69.20
2022-10-10T19:03:29.987Z,69.35
2022-10-10T19:05:56.575Z,69.38
2022-10-10T19:08:23.302Z,69.02
2022-10-10T19:10:50.101Z,69.20
2022-10-10T19:13:16.588Z,69.01
2022-10-10T19:15:43.154Z,68.88
2022-10-10T19:18:10.236Z,68.50
2022-10-10T19:20:38.502Z,68.59
2022-10-10T19:23:05.557Z,68.72
2022-10-10T19:25:39.952Z,68.76
2022-10-10T19:28:06.819Z,68.83
2022-10-10T19:30:40.604Z,69.07
2022-10-10T19:33:07.243Z,69.29
2022-10-10T19:35:41.592Z,69.54
2022-10-10T19:38:09.139Z,69.56
2022-10-10T19:40:42.504Z,69.78
2022-10-10T19:43:09.062Z,69.96
2022-10-10T19:45:43.177Z,70.34
2022-10-10T19:48:09.750Z,70.58
2022-10-10T19:50:40.040Z,70.74
2022-10-10T19:53:06.941Z,71.04
2022-10-10T19:55:33.453Z,71.10
2022-10-10T19:57:59.985Z,71.69
2022-10-10T20:00:26.713Z,71.68
2022-10-10T20:02:53.146Z,71.94
2022-10-10T20:05:20.102Z,72.06
2022-10-10T20:07:50.723Z,72.36
2022-10-10T20:10:18.505Z,72.76
2022-10-10T20:12:45.854Z,72.84
2022-10-10T20:15:12.374Z,72.76
2022-10-10T20:17:39.013Z,72.85
2022-10-10T20:20:06.089Z,73.22
2022-10-10T20:22:33.803Z,73.25
2022-10-10T20:25:01.426Z,73.46
2022-10-10T20:27:31.224Z,73.40
2022-10-10T20:29:58.004Z,73.76
2022-10-10T20:32:26.147Z,73.99
2022-10-10T20:34:52.787Z,73.73
2022-10-10T20:37:19.242Z,74.29
2022-10-10T20:39:45.967Z,74.21
2022-10-10T20:42:12.513Z,74.36
2022-10-10T20:44:39.834Z,74.38
2022-10-10T20:47:06.328Z,74.58
2022-10-10T20:49:32.956Z,74.72
2022-10-10T20:51:59.969Z,74.87
2022-10-10T20:54:26.619Z,74.95
2022-10-10T20:56:53.155Z,75.16
2022-10-10T20:59:20.372Z,75.67
2022-10-10T21:01:47.195Z,75.47
2022-10-10T21:04:13.965Z,75.41
2022-10-10T21:06:49.349Z,75.40
2022-10-10T21:09:15.902Z,75.64
2022-10-10T21:11:43.501Z,75.88
2022-10-10T21:14:11.291Z,75.89
2022-10-10T21:16:38.721Z,75.97
2022-10-10T21:19:11.159Z,76.05
2022-10-10T21:21:37.983Z,75.79
2022-10-10T21:24:05.362Z,76.25
2022-10-10T21:26:31.916Z,76.59
2022-10-10T21:29:00.018Z,77.00
2022-10-10T21:31:28.745Z,76.69
2022-10-10T21:33:59.315Z,76.67
2022-10-10T21:36:26.084Z,76.71
2022-10-10T21:38:56.279Z,76.58
2022-10-10T21:41:22.973Z,76.89
2022-10-10T21:43:54.125Z,76.89
2022-10-10T21:46:27.146Z,76.83
2022-10-10T21:48:54.726Z,76.99
2022-10-10T21:51:21.233Z,77.19
2022-10-10T21:53:48.353Z,77.06
2022-10-10T21:56:14.978Z,77.21
2022-10-10T21:58:42.103Z,77.21
2022-10-10T22:01:16.520Z,77.23
2022-10-10T22:03:43.712Z,77.16
2022-10-10T22:06:13.758Z,77.15
2022-10-10T22:08:43.239Z,77.32
2022-10-10T22:11:13.055Z,77.43
2022-10-10T22:13:39.722Z,77.72
2022-10-10T22:16:08.390Z,77.34
2022-10-10T22:18:35.740Z,77.81
2022-10-10T22:21:04.224Z,77.42
2022-10-10T22:23:30.867Z,77.50
2022-10-10T22:25:57.542Z,77.80
2022-10-10T22:28:24.131Z,77.47
2022-10-10T22:30:50.820Z,77.65
2022-10-10T22:33:17.654Z,77.92
2022-10-10T22:35:44.360Z,77.89
2022-10-10T22:38:15.148Z,78.18
2022-10-10T22:40:43.311Z,78.35
2022-10-10T22:43:09.830Z,78.39
2022-10-10T22:45:36.289Z,78.38
2022-10-10T22:48:03.007Z,78.50
2022-10-10T22:50:30.556Z,78.49
2022-10-10T22:52:57.028Z,78.73
2022-10-10T22:55:23.784Z,78.67
2022-10-10T22:57:50.489Z,78.45
2022-10-10T23:00:17.385Z,78.36
2022-10-10T23:02:44.072Z,78.09
2022-10-10T23:05:10.591Z,78.16
2022-10-10T23:07:39.704Z,78.23
2022-10-10T23:10:07.865Z,78.01
2022-10-10T23:12:34.830Z,77.99
2022-10-10T23:15:01.666Z,78.10
2022-10-10T23:17:28.158Z,77.80
2022-10-10T23:19:56.677Z,78.23
2022-10-10T23:22:23.216Z,78.12
2022-10-10T23:24:51.806Z,78.17
2022-10-10T23:27:18.348Z,78.23
2022-10-10T23:29:45.399Z,78.21
2022-10-10T23:32:11.973Z,78.32
2022-10-10T23:34:39.412Z,78.19
2022-10-10T23:37:06.072Z,78.44
2022-10-10T23:39:32.610Z,78.07
2022-10-10T23:41:59.056Z,78.11
2022-10-10T23:44:25.671Z,78.50
2022-10-10T23:46:52.154Z,78.51
2022-10-10T23:49:19.977Z,78.70
2022-10-10T23:51:46.789Z,78.86
2022-10-10T23:54:13.265Z,78.95
2022-10-10T23:56:40.598Z,78.75
2022-10-10T23:59:07.102Z,78.73
